Time;durP1;ratioP1;P1;durP2;ratioP2;P2;SDS_P1;SDS_P2;PMS_P1;PMS_P2;Temp;Humidity;BMP_temperature;BMP_pressure;BME280_temperature;BME280_humidity;BME280_pressure;Samples;Min_cycle;Max_cycle;Signal;HPM_P1;HPM_P2
2022/03/14 00:00:49;;;;;;;17.77;16.17;;;;;;;2.57;72.59;102029.56;4952451;29;20881;-46
2022/03/14 00:03:17;;;;;;;17.70;16.20;;;;;;;2.60;73.33;102032.00;4952863;28;20448;-45
2022/03/14 00:05:45;;;;;;;19.70;17.73;;;;;;;2.61;74.22;102033.69;4952812;28;20444;-46
2022/03/14 00:08:13;;;;;;;17.63;15.80;;;;;;;2.61;74.05;102030.19;4952296;28;20475;-45
2022/03/14 00:10:41;;;;;;;18.53;16.73;;;;;;;2.59;73.25;102029.47;4952441;29;20444;-45
2022/03/14 00:13:09;;;;;;;19.47;17.67;;;;;;;2.53;73.43;102033.41;4952607;28;20440;-45
2022/03/14 00:15:40;;;;;;;18.30;16.37;;;;;;;2.42;72.31;102027.25;4952448;28;20887;-43
2022/03/14 00:18:10;;;;;;;18.90;17.00;;;;;;;2.36;72.35;102038.25;4952380;28;20428;-47
2022/03/14 00:20:39;;;;;;;16.57;15.07;;;;;;;2.30;72.22;102034.25;4952376;29;20538;-46
2022/03/14 00:23:07;;;;;;;18.10;16.00;;;;;;;2.23;72.07;102033.03;4952418;28;20436;-46
2022/03/14 00:25:34;;;;;;;17.83;16.10;;;;;;;2.19;72.24;102039.44;4952313;29;20535;-46
2022/03/14 00:28:02;;;;;;;17.83;16.10;;;;;;;2.13;72.47;102032.84;4951856;28;20555;-45
2022/03/14 00:30:30;;;;;;;18.57;15.40;;;;;;;2.11;72.40;102044.44;4952082;29;20539;-44
2022/03/14 00:32:59;;;;;;;17.67;15.77;;;;;;;2.05;73.41;102045.72;4952283;29;20478;-46
2022/03/14 00:35:27;;;;;;;16.90;15.20;;;;;;;2.01;73.19;102038.16;4952366;29;20811;-46
2022/03/14 00:37:55;;;;;;;16.70;15.17;;;;;;;1.94;72.93;102048.25;4951858;28;20459;-46
2022/03/14 00:40:23;;;;;;;16.13;14.73;;;;;;;1.88;72.92;102035.53;4951806;28;20436;-44
2022/03/14 00:42:53;;;;;;;16.80;15.00;;;;;;;1.84;72.83;102047.25;4952296;29;20474;-44
2022/03/14 00:45:24;;;;;;;16.97;15.30;;;;;;;1.83;73.40;102049.97;4952118;29;20444;-44
2022/03/14 00:47:52;;;;;;;17.33;15.83;;;;;;;1.80;72.97;102052.81;4985837;28;20991;-45
2022/03/14 00:50:21;;;;;;;16.20;14.50;;;;;;;1.78;73.02;102055.56;4951874;29;20951;-46
2022/03/14 00:52:49;;;;;;;16.33;14.63;;;;;;;1.79;73.48;102059.03;4942843;29;20828;-44
2022/03/14 00:55:16;;;;;;;15.93;14.47;;;;;;;1.77;72.51;102055.66;4932728;29;20447;-44
2022/03/14 00:57:44;;;;;;;14.83;13.33;;;;;;;1.77;72.83;102053.88;4932750;29;20437;-45
2022/03/14 01:00:13;;;;;;;16.83;15.17;;;;;;;1.78;73.61;102055.56;4932187;28;21006;-45
2022/03/14 01:02:40;;;;;;;15.20;13.70;;;;;;;1.76;73.26;102064.53;4932658;29;20457;-44
2022/03/14 01:05:09;;;;;;;16.10;13.30;;;;;;;1.78;73.23;102055.56;4932938;28;20503;-48
2022/03/14 01:07:38;;;;;;;15.80;14.40;;;;;;;1.79;73.01;102051.16;4932522;29;20847;-44
2022/03/14 01:10:07;;;;;;;14.10;12.87;;;;;;;1.79;73.01;102057.25;4932231;28;20475;-45
2022/03/14 01:12:34;;;;;;;14.43;13.17;;;;;;;1.80;72.65;102058.94;4932607;29;20486;-49
2022/03/14 01:15:02;;;;;;;15.33;13.23;;;;;;;1.82;72.22;102056.19;4932540;29;20524;-46
2022/03/14 01:17:30;;;;;;;13.83;12.50;;;;;;;1.82;71.27;102059.69;4932475;29;20476;-47
2022/03/14 01:19:58;;;;;;;12.87;11.63;;;;;;;1.85;71.05;102061.25;4932195;28;20473;-44
2022/03/14 01:22:26;;;;;;;15.90;12.67;;;;;;;1.83;69.72;102063.97;4932453;28;21077;-45
2022/03/14 01:24:55;;;;;;;13.07;12.07;;;;;;;1.83;69.29;102065.75;4932570;29;20451;-44
2022/03/14 01:27:22;;;;;;;15.20;13.63;;;;;;;1.82;68.60;102072.81;4932445;29;20502;-49
2022/03/14 01:29:50;;;;;;;14.90;12.00;;;;;;;1.81;68.59;102062.41;4932131;28;20465;-46
2022/03/14 01:32:18;;;;;;;13.53;12.33;;;;;;;1.79;68.25;102073.03;4932008;29;20543;-45
2022/03/14 01:34:45;;;;;;;12.87;11.57;;;;;;;1.78;67.73;102073.13;4932232;29;20440;-44
2022/03/14 01:37:13;;;;;;;13.50;12.20;;;;;;;1.73;66.92;102073.47;4932178;29;20441;-44
2022/03/14 01:39:40;;;;;;;12.93;11.63;;;;;;;1.64;66.33;102080.19;4931952;28;20552;-45
2022/03/14 01:42:16;;;;;;;14.20;12.70;;;;;;;1.57;66.28;102078.09;4931885;29;20453;-45
2022/03/14 01:44:45;;;;;;;14.67;12.10;;;;;;;1.49;66.50;102072.53;4938911;29;20439;-45
2022/03/14 01:47:14;;;;;;;12.13;10.90;;;;;;;1.45;66.00;102071.91;4984399;28;20998;-48
2022/03/14 01:49:42;;;;;;;12.03;11.07;;;;;;;1.45;65.51;102078.94;4950398;28;20494;-44
2022/03/14 01:52:10;;;;;;;11.83;10.70;;;;;;;1.46;65.68;102078.00;4951011;29;20552;-43
2022/03/14 01:54:38;;;;;;;13.90;12.50;;;;;;;1.51;68.34;102081.16;4951145;29;20531;-48
2022/03/14 01:57:06;;;;;;;14.63;13.30;;;;;;;1.54;68.56;102084.41;4951092;29;20446;-43
2022/03/14 01:59:37;;;;;;;15.17;13.70;;;;;;;1.58;69.53;102077.97;4950620;28;20646;-44
2022/03/14 02:02:06;;;;;;;15.40;13.60;;;;;;;1.65;70.32;102086.28;4950915;29;20571;-45
2022/03/14 02:04:35;;;;;;;14.27;13.03;;;;;;;1.66;70.33;102078.31;4951075;29;20564;-43
2022/03/14 02:07:04;;;;;;;15.20;13.70;;;;;;;1.64;70.99;102080.19;4951025;28;20435;-46
2022/03/14 02:09:31;;;;;;;15.83;14.27;;;;;;;1.66;71.17;102082.72;4950712;28;20476;-45
2022/03/14 02:12:07;;;;;;;15.07;13.47;;;;;;;1.61;70.85;102080.41;4949718;29;20483;-44
2022/03/14 02:14:39;;;;;;;15.73;13.20;;;;;;;1.54;70.94;102073.91;4949774;28;20435;-46
2022/03/14 02:17:09;;;;;;;15.00;13.17;;;;;;;1.51;70.78;102071.50;4949205;28;20443;-46
2022/03/14 02:19:37;;;;;;;14.60;13.20;;;;;;;1.50;71.28;102074.19;4949770;28;21004;-45
2022/03/14 02:22:13;;;;;;;14.50;13.17;;;;;;;1.49;70.94;102073.34;4950371;28;20990;-46
2022/03/14 02:24:41;;;;;;;12.03;11.07;;;;;;;1.47;70.52;102070.00;4950629;28;20471;-46
2022/03/14 02:27:09;;;;;;;13.80;11.80;;;;;;;1.47;70.68;102067.38;4949987;29;20938;-46
2022/03/14 02:29:37;;;;;;;12.73;11.53;;;;;;;1.50;70.02;102077.69;4950086;28;21050;-47
2022/03/14 02:32:05;;;;;;;13.00;11.90;;;;;;;1.50;69.76;102071.56;4950510;28;20542;-47
2022/03/14 02:34:33;;;;;;;14.10;12.90;;;;;;;1.48;69.12;102076.09;4950514;28;20482;-48
2022/03/14 02:37:02;;;;;;;14.80;13.40;;;;;;;1.50;69.20;102082.09;4950424;28;20815;-47
2022/03/14 02:39:33;;;;;;;16.30;12.73;;;;;;;1.47;69.27;102080.53;4950094;28;20484;-45
2022/03/14 02:42:01;;;;;;;14.13;12.80;;;;;;;1.43;68.60;102076.44;4950429;28;20815;-44
2022/03/14 02:44:29;;;;;;;14.80;13.60;;;;;;;1.38;68.42;102077.69;4950402;28;20539;-47
2022/03/14 02:46:56;;;;;;;15.37;13.80;;;;;;;1.31;68.44;102084.31;4983678;28;20515;-45
2022/03/14 02:49:24;;;;;;;14.60;13.13;;;;;;;1.23;68.55;102083.97;4949972;28;20472;-47
2022/03/14 02:51:52;;;;;;;13.23;12.20;;;;;;;1.18;67.95;102079.03;4949967;29;20460;-47
2022/03/14 02:54:21;;;;;;;16.13;12.60;;;;;;;1.14;68.86;102085.44;4950715;28;20997;-46
2022/03/14 02:56:50;;;;;;;12.60;11.60;;;;;;;1.11;68.29;102083.88;4950458;29;20431;-47
2022/03/14 02:59:17;;;;;;;15.20;13.37;;;;;;;1.13;69.36;102084.59;4949773;28;20474;-48
2022/03/14 03:01:45;;;;;;;12.47;11.20;;;;;;;1.13;68.84;102081.97;4949892;28;20462;-48
2022/03/14 03:04:13;;;;;;;12.37;11.43;;;;;;;1.15;68.38;102092.38;4953460;29;20439;-47
2022/03/14 03:06:41;;;;;;;13.57;12.20;;;;;;;1.19;69.04;102085.16;4953766;29;20450;-48
2022/03/14 03:09:08;;;;;;;13.73;12.40;;;;;;;1.19;68.82;102088.63;4953281;28;20568;-48
2022/03/14 03:11:36;;;;;;;13.60;12.30;;;;;;;1.19;68.83;102088.63;4953418;29;20661;-49
2022/03/14 03:14:05;;;;;;;13.97;12.60;;;;;;;1.17;68.89;102089.63;4953521;29;20439;-47
2022/03/14 03:16:34;;;;;;;14.10;12.90;;;;;;;1.16;68.77;102093.22;4953465;28;20442;-47
2022/03/14 03:19:03;;;;;;;14.90;13.27;;;;;;;1.13;69.59;102089.84;4953096;28;20468;-49
2022/03/14 03:21:34;;;;;;;17.23;12.97;;;;;;;1.13;69.52;102096.06;4953218;29;20486;-47
2022/03/14 03:24:01;;;;;;;13.20;12.00;;;;;;;1.10;70.06;102099.75;4953551;28;20450;-47
2022/03/14 03:26:29;;;;;;;13.77;12.30;;;;;;;1.10;69.92;102097.13;4953292;28;20511;-47
2022/03/14 03:28:57;;;;;;;12.47;11.27;;;;;;;1.05;68.66;102101.81;4952815;28;21009;-50
2022/03/14 03:31:28;;;;;;;14.40;12.97;;;;;;;1.02;67.77;102102.03;4953099;28;20470;-50
2022/03/14 03:33:56;;;;;;;12.87;11.57;;;;;;;0.99;67.10;102103.06;4953372;28;20992;-50
2022/03/14 03:36:24;;;;;;;12.03;10.80;;;;;;;1.00;66.75;102098.66;4953326;29;20438;-49
2022/03/14 03:38:51;;;;;;;11.13;10.23;;;;;;;1.00;65.55;102109.16;4952873;28;20555;-51
2022/03/14 03:41:19;;;;;;;11.13;10.03;;;;;;;1.02;65.05;102104.66;4952922;28;20452;-48
2022/03/14 03:43:47;;;;;;;12.20;11.00;;;;;;;1.06;63.52;102109.59;4952885;28;20458;-48
2022/03/14 03:46:14;;;;;;;11.13;9.80;;;;;;;1.07;63.22;102110.47;4967125;28;20438;-50
2022/03/14 03:48:43;;;;;;;12.73;11.40;;;;;;;1.09;64.08;102117.28;4970434;28;21090;-49
2022/03/14 03:51:11;;;;;;;13.90;12.50;;;;;;;1.18;65.66;102128.13;4952659;28;20487;-47
2022/03/14 03:53:38;;;;;;;14.80;13.50;;;;;;;1.23;67.72;102126.84;4952908;29;20539;-49
2022/03/14 03:56:06;;;;;;;14.40;12.90;;;;;;;1.25;68.72;102139.91;4952754;28;20440;-47
2022/03/14 03:58:34;;;;;;;13.40;12.10;;;;;;;1.20;67.49;102132.31;4952606;28;20460;-47
2022/03/14 04:01:02;;;;;;;13.97;12.67;;;;;;;1.11;66.14;102132.94;4952405;28;20542;-47
2022/03/14 04:03:30;;;;;;;12.87;11.90;;;;;;;1.04;65.93;102136.94;4952774;28;20460;-47
2022/03/14 04:05:59;;;;;;;12.60;11.40;;;;;;;0.96;65.03;102131.31;4952709;28;20610;-47
2022/03/14 04:08:30;;;;;;;11.23;10.33;;;;;;;0.90;64.60;102137.81;4952275;28;20470;-49
2022/03/14 04:10:58;;;;;;;11.90;10.70;;;;;;;0.91;63.34;102142.13;4952180;29;20431;-47
2022/03/14 04:13:26;;;;;;;13.20;11.87;;;;;;;0.95;63.11;102138.38;4952421;28;20517;-48
2022/03/14 04:15:54;;;;;;;11.97;10.63;;;;;;;1.00;62.41;102136.28;4952497;29;20442;-46
2022/03/14 04:18:24;;;;;;;13.67;12.37;;;;;;;1.07;61.45;102136.72;4952312;28;20460;-46
2022/03/14 04:20:53;;;;;;;13.23;11.93;;;;;;;1.07;60.79;102140.19;4952154;28;20872;-46
2022/03/14 04:23:23;;;;;;;12.03;10.43;;;;;;;1.09;59.65;102147.97;4952250;29;20538;-45
2022/03/14 04:25:51;;;;;;;13.60;11.90;;;;;;;1.11;59.74;102148.69;4952610;28;20440;-46
2022/03/14 04:28:18;;;;;;;13.97;12.43;;;;;;;1.12;59.14;102150.38;4952161;28;20550;-48
2022/03/14 04:30:46;;;;;;;14.40;11.77;;;;;;;1.10;59.05;102155.75;4951853;28;20482;-49
2022/03/14 04:33:13;;;;;;;13.20;10.83;;;;;;;1.08;58.78;102146.28;4952329;28;20432;-48
2022/03/14 04:35:42;;;;;;;16.03;11.53;;;;;;;1.05;59.26;102147.31;4952335;29;20527;-45
2022/03/14 04:38:10;;;;;;;11.70;9.83;;;;;;;1.03;59.11;102161.50;4951794;28;20611;-48
2022/03/14 04:40:39;;;;;;;14.07;12.53;;;;;;;1.00;59.72;102156.44;4952454;28;20804;-44
2022/03/14 04:43:08;;;;;;;13.10;11.80;;;;;;;0.97;60.38;102146.16;4952213;28;20842;-43
2022/03/14 04:45:38;;;;;;;11.97;10.27;;;;;;;0.95;59.85;102148.88;4952264;28;20443;-43
2022/03/14 04:48:10;;;;;;;12.17;11.07;;;;;;;0.92;59.30;102145.63;4985183;28;20432;-44
2022/03/14 04:50:39;;;;;;;12.90;11.10;;;;;;;0.88;59.52;102152.00;4951646;29;20854;-43
2022/03/14 04:53:07;;;;;;;15.30;12.20;;;;;;;0.86;58.57;102148.63;4952105;29;20523;-44
2022/03/14 04:55:36;;;;;;;12.87;11.67;;;;;;;0.82;58.71;102153.25;4951887;28;20522;-45
2022/03/14 04:58:06;;;;;;;12.70;11.30;;;;;;;0.79;58.74;102152.59;4951727;28;21001;-44
2022/03/14 05:00:34;;;;;;;13.53;12.20;;;;;;;0.82;59.14;102163.75;4951710;29;20434;-43
2022/03/14 05:03:03;;;;;;;13.00;11.70;;;;;;;0.82;58.51;102163.75;4951775;28;20562;-45
2022/03/14 05:05:31;;;;;;;17.77;12.50;;;;;;;0.85;58.62;102160.91;4951747;28;20471;-44
2022/03/14 05:07:59;;;;;;;15.03;13.33;;;;;;;0.78;59.20;102153.53;4951645;28;20436;-43
2022/03/14 05:10:27;;;;;;;13.13;12.00;;;;;;;0.75;59.14;102153.72;4951332;28;20480;-43
2022/03/14 05:12:54;;;;;;;17.53;13.67;;;;;;;0.67;59.60;102150.75;4951642;29;20487;-46
2022/03/14 05:15:23;;;;;;;14.33;12.97;;;;;;;0.58;59.38;102149.56;4951606;29;20443;-45
2022/03/14 05:17:51;;;;;;;13.50;11.87;;;;;;;0.54;59.23;102150.69;4951795;29;20446;-44
2022/03/14 05:20:19;;;;;;;15.07;13.47;;;;;;;0.54;59.82;102155.94;4951094;28;20551;-46
2022/03/14 05:22:48;;;;;;;15.17;13.67;;;;;;;0.58;59.76;102157.44;4951513;29;20536;-44
2022/03/14 05:25:17;;;;;;;13.00;11.73;;;;;;;0.58;59.10;102160.06;4950732;28;20471;-44
2022/03/14 05:27:45;;;;;;;16.00;13.47;;;;;;;0.57;59.26;102164.47;4951488;28;20531;-45
2022/03/14 05:30:13;;;;;;;19.67;13.20;;;;;;;0.59;59.49;102159.13;4950529;28;21002;-45
2022/03/14 05:32:43;;;;;;;14.83;13.33;;;;;;;0.66;59.23;102160.41;4951294;29;20546;-46
2022/03/14 05:35:13;;;;;;;17.43;12.40;;;;;;;0.69;59.37;102167.28;4951265;29;20475;-45
2022/03/14 05:37:41;;;;;;;14.40;12.83;;;;;;;0.76;58.66;102158.88;4951435;28;20522;-44
2022/03/14 05:40:10;;;;;;;13.80;11.47;;;;;;;0.80;58.70;102156.91;4950724;28;20463;-46
2022/03/14 05:42:38;;;;;;;13.33;11.97;;;;;;;0.81;58.84;102155.94;4950972;29;20543;-44
2022/03/14 05:45:08;;;;;;;15.00;11.93;;;;;;;0.80;57.95;102157.75;4951297;28;20440;-43
2022/03/14 05:47:36;;;;;;;12.50;11.20;;;;;;;0.83;58.00;102160.19;4984693;28;20471;-45
2022/03/14 05:50:06;;;;;;;13.40;11.63;;;;;;;0.85;58.46;102163.53;4950689;28;20567;-44
2022/03/14 05:52:34;;;;;;;13.00;11.70;;;;;;;0.87;57.98;102166.06;4951218;28;20539;-47
2022/03/14 05:55:02;;;;;;;17.70;13.43;;;;;;;0.93;57.35;102163.88;4950878;28;20482;-45
2022/03/14 05:57:29;;;;;;;13.13;11.83;;;;;;;1.00;57.47;102169.59;4950944;28;21049;-46
2022/03/14 05:59:57;;;;;;;16.00;12.30;;;;;;;1.08;57.19;102170.75;4950639;28;20585;-45
2022/03/14 06:02:25;;;;;;;17.00;12.67;;;;;;;1.13;57.02;102171.28;4950840;29;20460;-45
2022/03/14 06:04:54;;;;;;;18.73;12.20;;;;;;;1.24;57.15;102177.63;4950947;29;20757;-46
2022/03/14 06:07:23;;;;;;;13.30;11.67;;;;;;;1.29;56.96;102176.38;4950804;29;20531;-46
2022/03/14 06:09:51;;;;;;;13.77;12.37;;;;;;;1.53;56.45;102172.13;4950303;28;20839;-44
2022/03/14 06:12:25;;;;;;;15.87;12.73;;;;;;;2.21;55.47;102179.69;4950784;29;20456;-43
2022/03/14 06:14:54;;;;;;;14.50;12.67;;;;;;;2.95;56.42;102186.63;4950870;28;20536;-45
2022/03/14 06:17:22;;;;;;;14.63;13.10;;;;;;;3.66;54.02;102176.81;4950890;29;20432;-46
2022/03/14 06:19:50;;;;;;;14.40;13.00;;;;;;;4.26;51.41;102178.28;4950391;28;20467;-47
2022/03/14 06:22:19;;;;;;;20.73;12.93;;;;;;;4.83;49.05;102183.34;4950311;29;20542;-46
2022/03/14 06:24:49;;;;;;;15.60;13.90;;;;;;;5.41;49.66;102179.38;4950513;29;21026;-44
2022/03/14 06:27:17;;;;;;;15.33;13.40;;;;;;;5.93;46.91;102187.28;4950780;28;20459;-45
2022/03/14 06:29:45;;;;;;;14.50;12.93;;;;;;;6.41;47.55;102186.66;4950129;28;20562;-44
2022/03/14 06:32:13;;;;;;;15.33;13.73;;;;;;;6.85;45.99;102188.84;4950271;29;20452;-44
2022/03/14 06:34:41;;;;;;;16.20;13.87;;;;;;;7.23;46.06;102188.03;4950419;28;20811;-44
2022/03/14 06:37:09;;;;;;;19.07;14.47;;;;;;;7.53;45.12;102182.56;4952477;28;20435;-44
2022/03/14 06:39:38;;;;;;;16.40;14.60;;;;;;;7.74;45.00;102180.56;4953635;28;20472;-44
2022/03/14 06:42:09;;;;;;;15.60;14.03;;;;;;;7.96;43.11;102183.88;4953620;29;20538;-44
2022/03/14 06:44:38;;;;;;;21.17;16.77;;;;;;;8.12;43.48;102186.78;4953736;28;20448;-46
2022/03/14 06:47:07;;;;;;;35.03;28.03;;;;;;;8.20;43.03;102192.19;4987301;28;20531;-48
2022/03/14 06:49:36;;;;;;;18.00;16.07;;;;;;;8.26;42.56;102188.94;4953612;28;20472;-45
2022/03/14 06:52:04;;;;;;;17.83;15.93;;;;;;;8.48;42.01;102190.44;4953482;29;20625;-44
2022/03/14 06:54:32;;;;;;;16.70;14.97;;;;;;;8.49;41.69;102184.09;4953722;28;20534;-45
2022/03/14 06:56:59;;;;;;;15.50;13.90;;;;;;;8.59;41.54;102191.06;4953650;29;20435;-48
2022/03/14 06:59:28;;;;;;;16.03;14.47;;;;;;;8.67;41.96;102184.97;4953265;28;20555;-48
2022/03/14 07:01:56;;;;;;;15.80;14.07;;;;;;;8.63;40.26;102187.09;4953033;29;20491;-45
2022/03/14 07:04:23;;;;;;;14.60;13.13;;;;;;;8.48;40.70;102185.94;4953530;29;20962;-47
2022/03/14 07:06:51;;;;;;;17.30;15.50;;;;;;;8.25;40.47;102195.22;4953849;28;20440;-48
2022/03/14 07:09:19;;;;;;;17.77;15.97;;;;;;;8.09;39.99;102198.53;4953078;28;21017;-47
2022/03/14 07:11:51;;;;;;;16.80;15.10;;;;;;;7.85;40.25;102198.19;4953188;28;20475;-44
2022/03/14 07:14:19;;;;;;;15.40;13.90;;;;;;;7.70;40.94;102211.06;4953453;29;20539;-44
2022/03/14 07:16:49;;;;;;;15.70;13.83;;;;;;;7.50;40.72;102216.50;4953373;29;20479;-44
2022/03/14 07:19:17;;;;;;;21.60;16.00;;;;;;;7.28;39.41;102214.16;4953369;28;20467;-46
2022/03/14 07:21:45;;;;;;;18.00;15.13;;;;;;;7.09;40.55;102222.94;4953516;29;20455;-48
2022/03/14 07:24:12;;;;;;;16.20;14.60;;;;;;;6.99;41.30;102227.41;4953365;29;21025;-44
2022/03/14 07:26:40;;;;;;;15.73;14.27;;;;;;;6.87;41.41;102231.16;4953203;29;20965;-47
2022/03/14 07:29:08;;;;;;;16.43;14.67;;;;;;;6.82;40.69;102228.06;4953051;28;20470;-47
2022/03/14 07:31:37;;;;;;;16.63;14.87;;;;;;;6.76;39.84;102226.78;4953044;29;21170;-46
2022/03/14 07:34:06;;;;;;;16.90;15.07;;;;;;;6.81;40.34;102231.69;4953409;28;20452;-45
2022/03/14 07:36:34;;;;;;;23.97;15.93;;;;;;;7.04;40.17;102227.81;4953120;29;20440;-50
2022/03/14 07:39:02;;;;;;;18.33;15.80;;;;;;;7.13;39.79;102232.31;4952670;28;20491;-45
2022/03/14 07:41:29;;;;;;;16.60;14.90;;;;;;;7.31;39.28;102227.16;4952762;29;20821;-44
2022/03/14 07:44:00;;;;;;;17.23;15.63;;;;;;;7.57;39.16;102228.25;4953113;28;20439;-46
2022/03/14 07:46:28;;;;;;;18.57;15.30;;;;;;;7.80;38.91;102221.66;4974603;28;20456;-45
2022/03/14 07:48:56;;;;;;;22.37;15.60;;;;;;;8.03;37.43;102222.19;4962290;28;20491;-46
2022/03/14 07:51:25;;;;;;;17.33;15.40;;;;;;;8.26;38.05;102223.50;4952363;29;20558;-46
2022/03/14 07:53:53;;;;;;;16.77;15.03;;;;;;;8.43;38.21;102228.06;4952803;28;20527;-47
2022/03/14 07:56:20;;;;;;;18.13;16.20;;;;;;;8.51;38.41;102230.81;4952784;29;20431;-48
2022/03/14 07:58:49;;;;;;;16.40;14.80;;;;;;;8.68;37.27;102227.41;4952579;28;20466;-45
2022/03/14 08:01:17;;;;;;;20.27;16.37;;;;;;;8.62;37.99;102235.97;4952584;29;20550;-47
2022/03/14 08:03:46;;;;;;;17.97;15.40;;;;;;;8.60;36.12;102226.47;4952638;28;20443;-45
2022/03/14 08:06:22;;;;;;;18.27;15.70;;;;;;;8.49;37.93;102232.81;4952361;29;20436;-46
2022/03/14 08:08:53;;;;;;;18.60;15.67;;;;;;;8.62;38.31;102224.50;4952471;28;20475;-47
2022/03/14 08:11:24;;;;;;;18.73;15.33;;;;;;;8.54;37.23;102222.56;4952594;28;20479;-45
2022/03/14 08:13:52;;;;;;;17.57;14.50;;;;;;;8.38;38.31;102226.84;4952302;29;20542;-47
2022/03/14 08:16:20;;;;;;;18.93;15.50;;;;;;;8.15;38.47;102236.97;4952611;28;20923;-45
2022/03/14 08:18:47;;;;;;;19.93;15.10;;;;;;;7.90;37.56;102232.25;4951995;28;20475;-44
2022/03/14 08:21:15;;;;;;;16.27;14.47;;;;;;;7.83;38.40;102242.63;4952109;29;20454;-47
2022/03/14 08:23:43;;;;;;;18.23;15.23;;;;;;;7.77;38.52;102240.53;4952267;29;20462;-46
2022/03/14 08:26:12;;;;;;;15.80;13.83;;;;;;;7.76;39.38;102238.88;4952359;29;20530;-45
2022/03/14 08:28:43;;;;;;;16.53;14.80;;;;;;;7.79;38.29;102238.59;4951874;28;20488;-47
2022/03/14 08:31:11;;;;;;;15.77;14.07;;;;;;;7.94;39.33;102241.63;4951821;28;20490;-46
2022/03/14 08:33:41;;;;;;;16.20;13.83;;;;;;;8.08;39.53;102246.47;4952262;28;20873;-44
2022/03/14 08:36:09;;;;;;;19.90;15.60;;;;;;;8.05;38.24;102250.28;4952309;29;20436;-44
2022/03/14 08:38:38;;;;;;;17.70;14.60;;;;;;;8.01;37.59;102253.34;4951770;28;20584;-44
2022/03/14 08:41:06;;;;;;;17.10;15.40;;;;;;;8.10;38.67;102257.78;4951937;29;20456;-45
2022/03/14 08:43:35;;;;;;;16.63;14.90;;;;;;;8.31;37.96;102256.66;4951976;29;20475;-45
2022/03/14 08:46:03;;;;;;;19.40;16.30;;;;;;;8.52;38.26;102250.28;4959233;28;20440;-44
2022/03/14 08:48:31;;;;;;;15.43;14.00;;;;;;;8.68;37.53;102247.84;4976262;28;20495;-44
2022/03/14 08:50:59;;;;;;;16.93;15.03;;;;;;;8.85;37.26;102249.69;4951917;29;20443;-43
2022/03/14 08:53:26;;;;;;;17.47;14.77;;;;;;;9.02;37.34;102253.41;4951777;29;20554;-44
2022/03/14 08:55:55;;;;;;;17.57;15.33;;;;;;;9.04;36.19;102257.56;4952044;29;20444;-46
2022/03/14 08:58:25;;;;;;;16.90;15.10;;;;;;;9.07;35.49;102265.25;4951687;28;20492;-44
2022/03/14 09:00:54;;;;;;;18.07;16.43;;;;;;;9.37;37.08;102256.09;4950474;29;20531;-45
2022/03/14 09:03:22;;;;;;;17.23;15.53;;;;;;;9.48;35.33;102268.31;4951862;28;20436;-46
2022/03/14 09:05:50;;;;;;;17.07;14.63;;;;;;;9.52;36.67;102265.22;4951834;29;20808;-46
2022/03/14 09:08:18;;;;;;;17.10;14.93;;;;;;;9.62;35.39;102259.78;4951194;28;20531;-44
2022/03/14 09:10:46;;;;;;;17.47;15.33;;;;;;;9.66;34.54;102261.16;4951236;29;20804;-46
2022/03/14 09:13:14;;;;;;;16.73;14.87;;;;;;;9.72;35.11;102261.38;4951875;28;20490;-45
2022/03/14 09:15:42;;;;;;;16.90;15.10;;;;;;;9.90;36.09;102264.88;4951365;28;20930;-47
2022/03/14 09:18:11;;;;;;;17.27;15.63;;;;;;;9.98;36.35;102264.06;4951174;28;20943;-45
2022/03/14 09:20:39;;;;;;;16.60;15.03;;;;;;;10.05;35.41;102266.94;4951352;28;20464;-47
2022/03/14 09:23:07;;;;;;;23.70;16.47;;;;;;;9.93;34.38;102269.88;4951356;29;20456;-48
2022/03/14 09:25:35;;;;;;;17.40;14.90;;;;;;;10.02;36.18;102266.28;4951020;29;20526;-48
2022/03/14 09:28:04;;;;;;;16.13;14.10;;;;;;;10.09;35.77;102261.16;4951225;28;20886;-44
2022/03/14 09:30:32;;;;;;;16.63;14.97;;;;;;;10.15;35.51;102260.56;4951039;29;20534;-43
2022/03/14 09:32:59;;;;;;;16.30;14.40;;;;;;;10.30;34.81;102253.69;4951050;28;20574;-47
2022/03/14 09:35:28;;;;;;;17.57;13.97;;;;;;;10.46;35.00;102267.06;4951195;28;20968;-46
2022/03/14 09:37:56;;;;;;;16.73;15.03;;;;;;;10.54;34.48;102269.78;4950885;28;20531;-44
2022/03/14 09:40:25;;;;;;;16.97;15.23;;;;;;;10.50;34.84;102276.44;4951035;29;20542;-48
2022/03/14 09:42:55;;;;;;;16.17;14.57;;;;;;;10.54;34.92;102280.44;4951214;28;21038;-44
2022/03/14 09:45:23;;;;;;;18.90;14.20;;;;;;;10.52;35.00;102286.94;4951161;28;20444;-46
2022/03/14 09:47:52;;;;;;;16.37;14.57;;;;;;;10.51;35.23;102282.63;4984483;28;20842;-44
2022/03/14 09:50:24;;;;;;;15.53;13.93;;;;;;;10.62;35.41;102290.34;4950344;28;21016;-45
2022/03/14 09:52:54;;;;;;;14.67;13.07;;;;;;;10.72;34.71;102290.22;4951279;29;20488;-48
2022/03/14 09:55:22;;;;;;;15.17;13.63;;;;;;;10.82;34.91;102282.91;4951285;28;20791;-46
2022/03/14 09:57:50;;;;;;;15.60;14.00;;;;;;;10.79;34.06;102296.56;4950831;29;20531;-45
2022/03/14 10:00:18;;;;;;;16.80;15.10;;;;;;;10.86;34.63;102298.47;4950507;28;20463;-45
2022/03/14 10:02:46;;;;;;;15.57;14.10;;;;;;;10.93;34.37;102293.31;4950785;28;20951;-44
2022/03/14 10:05:16;;;;;;;15.53;14.13;;;;;;;10.80;34.39;102306.25;4950965;29;20534;-44
2022/03/14 10:07:45;;;;;;;18.80;14.50;;;;;;;10.81;34.80;102307.94;4951007;29;20815;-45
2022/03/14 10:10:14;;;;;;;15.80;14.33;;;;;;;10.90;33.79;102296.31;4950328;28;20851;-45
2022/03/14 10:12:43;;;;;;;15.13;13.63;;;;;;;11.11;34.56;102296.69;4950153;29;20476;-46
2022/03/14 10:15:12;;;;;;;18.43;15.83;;;;;;;11.24;33.07;102304.25;4950708;28;20439;-44
2022/03/14 10:17:39;;;;;;;16.83;13.43;;;;;;;11.37;33.74;102307.28;4951153;28;20439;-45
2022/03/14 10:20:08;;;;;;;16.87;13.57;;;;;;;11.55;33.49;102308.84;4950320;28;21052;-46
2022/03/14 10:22:38;;;;;;;15.87;14.10;;;;;;;11.50;33.71;102316.50;4950631;29;20480;-45
2022/03/14 10:25:09;;;;;;;16.43;14.60;;;;;;;11.38;32.83;102314.31;4950813;29;20446;-45
2022/03/14 10:27:39;;;;;;;15.60;14.00;;;;;;;11.19;33.78;102311.91;4950554;29;20455;-46
2022/03/14 10:30:22;;;;;;;16.83;13.30;;;;;;;11.11;34.50;102312.72;4950100;28;20463;-48
2022/03/14 10:32:51;;;;;;;15.77;13.30;;;;;;;11.09;34.41;102320.06;4950501;29;20484;-44
2022/03/14 10:35:22;;;;;;;16.70;14.63;;;;;;;10.96;33.55;102315.16;4950648;29;20540;-45
2022/03/14 10:38:01;;;;;;;18.90;14.60;;;;;;;10.87;33.87;102323.31;4950661;28;20799;-45
2022/03/14 10:40:30;;;;;;;17.40;14.97;;;;;;;10.87;34.21;102329.47;4965546;23;20470;-46
2022/03/14 10:43:00;;;;;;;15.97;14.33;;;;;;;11.03;35.50;102318.88;4912739;29;20434;-48
2022/03/14 10:45:32;;;;;;;18.67;15.27;;;;;;;11.15;34.89;102319.41;4951601;28;20434;-46
2022/03/14 10:48:02;;;;;;;16.23;14.33;;;;;;;11.25;34.92;102327.28;4944824;28;20440;-47
2022/03/14 10:50:33;;;;;;;16.53;14.93;;;;;;;11.27;33.83;102326.13;4912521;28;20466;-47
2022/03/14 10:53:02;;;;;;;14.30;13.10;;;;;;;11.07;33.64;102328.25;4912025;29;20481;-45
2022/03/14 10:55:35;;;;;;;17.17;15.43;;;;;;;10.99;34.00;102314.84;4912571;29;20520;-48
2022/03/14 10:58:14;;;;;;;16.87;15.17;;;;;;;11.11;34.65;102324.22;4913305;28;20452;-46
2022/03/14 11:00:46;;;;;;;16.50;14.50;;;;;;;11.49;35.09;102319.34;4930867;29;20459;-47
2022/03/14 11:03:21;;;;;;;14.60;13.30;;;;;;;11.84;34.85;102316.41;4931071;29;20437;-47
2022/03/14 11:05:49;;;;;;;16.80;15.00;;;;;;;11.74;33.31;102309.56;4931465;29;20527;-47
2022/03/14 11:08:28;;;;;;;16.80;14.90;;;;;;;11.71;33.75;102308.03;4930854;29;20987;-47
2022/03/14 11:10:56;;;;;;;17.47;14.77;;;;;;;11.96;34.29;102303.53;4930825;29;20555;-48
2022/03/14 11:13:26;;;;;;;17.17;15.47;;;;;;;11.81;33.57;102308.72;4931150;29;20486;-46
2022/03/14 11:15:53;;;;;;;16.60;14.87;;;;;;;11.62;32.90;102304.47;4931083;29;20439;-47
2022/03/14 11:18:22;;;;;;;17.27;14.67;;;;;;;11.41;34.15;102300.63;4930467;29;20468;-46
2022/03/14 11:20:50;;;;;;;18.13;15.17;;;;;;;11.06;35.31;102310.53;4930948;29;20467;-45
2022/03/14 11:23:20;;;;;;;16.47;14.87;;;;;;;10.77;35.45;102309.25;4931935;29;20443;-47